sensor_id;sensor_type;location;lat;lon;timestamp;P1;durP1;ratioP1;P2;durP2;ratioP2
70975;SDS011;58635;51.198;6.010;2023-02-22T00:00:21;55.95;;;25.08;;
70975;SDS011;58635;51.198;6.010;2023-02-22T00:02:49;53.42;;;25.30;;
70975;SDS011;58635;51.198;6.010;2023-02-22T00:05:16;50.45;;;25.00;;
70975;SDS011;58635;51.198;6.010;2023-02-22T00:07:47;66.55;;;25.50;;
70975;SDS011;58635;51.198;6.010;2023-02-22T00:10:14;72.93;;;26.88;;
70975;SDS011;58635;51.198;6.010;2023-02-22T00:12:45;54.72;;;26.30;;
70975;SDS011;58635;51.198;6.010;2023-02-22T00:15:15;53.63;;;25.10;;
70975;SDS011;58635;51.198;6.010;2023-02-22T00:17:42;60.53;;;27.58;;
70975;SDS011;58635;51.198;6.010;2023-02-22T00:20:09;51.80;;;25.92;;
70975;SDS011;58635;51.198;6.010;2023-02-22T00:22:41;54.78;;;26.98;;
70975;SDS011;58635;51.198;6.010;2023-02-22T00:25:08;57.35;;;26.67;;
70975;SDS011;58635;51.198;6.010;2023-02-22T00:27:34;58.83;;;29.20;;
70975;SDS011;58635;51.198;6.010;2023-02-22T00:30:00;56.30;;;27.00;;
70975;SDS011;58635;51.198;6.010;2023-02-22T00:32:26;57.70;;;28.10;;
70975;SDS011;58635;51.198;6.010;2023-02-22T00:34:54;52.67;;;26.30;;
70975;SDS011;58635;51.198;6.010;2023-02-22T00:37:20;56.10;;;27.13;;
70975;SDS011;58635;51.198;6.010;2023-02-22T00:39:46;55.83;;;28.02;;
70975;SDS011;58635;51.198;6.010;2023-02-22T00:42:12;55.35;;;27.33;;
70975;SDS011;58635;51.198;6.010;2023-02-22T00:44:38;55.22;;;27.30;;
70975;SDS011;58635;51.198;6.010;2023-02-22T00:47:03;57.30;;;28.33;;
70975;SDS011;58635;51.198;6.010;2023-02-22T00:49:28;53.22;;;27.38;;
70975;SDS011;58635;51.198;6.010;2023-02-22T00:51:54;55.15;;;26.77;;
70975;SDS011;58635;51.198;6.010;2023-02-22T00:54:19;62.15;;;26.58;;
70975;SDS011;58635;51.198;6.010;2023-02-22T00:56:45;51.80;;;26.67;;
70975;SDS011;58635;51.198;6.010;2023-02-22T00:59:11;53.63;;;25.48;;
70975;SDS011;58635;51.198;6.010;2023-02-22T01:01:36;61.35;;;26.05;;
70975;SDS011;58635;51.198;6.010;2023-02-22T01:04:01;52.05;;;26.85;;
70975;SDS011;58635;51.198;6.010;2023-02-22T01:06:27;55.38;;;27.77;;
70975;SDS011;58635;51.198;6.010;2023-02-22T01:08:53;54.08;;;26.35;;
70975;SDS011;58635;51.198;6.010;2023-02-22T01:11:19;83.55;;;25.48;;
70975;SDS011;58635;51.198;6.010;2023-02-22T01:13:46;52.30;;;24.60;;
70975;SDS011;58635;51.198;6.010;2023-02-22T01:16:11;104.80;;;24.20;;
70975;SDS011;58635;51.198;6.010;2023-02-22T01:18:37;46.13;;;23.45;;
70975;SDS011;58635;51.198;6.010;2023-02-22T01:21:03;48.63;;;23.10;;
70975;SDS011;58635;51.198;6.010;2023-02-22T01:23:29;47.65;;;23.92;;
70975;SDS011;58635;51.198;6.010;2023-02-22T01:25:55;44.60;;;22.65;;
70975;SDS011;58635;51.198;6.010;2023-02-22T01:28:21;57.03;;;23.25;;
70975;SDS011;58635;51.198;6.010;2023-02-22T01:30:46;75.05;;;22.77;;
70975;SDS011;58635;51.198;6.010;2023-02-22T01:33:13;57.30;;;20.85;;
70975;SDS011;58635;51.198;6.010;2023-02-22T01:35:39;42.65;;;21.30;;
70975;SDS011;58635;51.198;6.010;2023-02-22T01:38:06;43.28;;;21.63;;
70975;SDS011;58635;51.198;6.010;2023-02-22T01:40:37;42.47;;;22.23;;
70975;SDS011;58635;51.198;6.010;2023-02-22T01:45:54;56.45;;;23.45;;
70975;SDS011;58635;51.198;6.010;2023-02-22T01:51:20;43.55;;;22.50;;
70975;SDS011;58635;51.198;6.010;2023-02-22T01:53:54;63.30;;;22.35;;
70975;SDS011;58635;51.198;6.010;2023-02-22T01:56:38;53.75;;;21.60;;
70975;SDS011;58635;51.198;6.010;2023-02-22T01:59:08;68.47;;;21.80;;
70975;SDS011;58635;51.198;6.010;2023-02-22T02:01:35;50.33;;;22.35;;
70975;SDS011;58635;51.198;6.010;2023-02-22T02:04:05;42.28;;;20.77;;
70975;SDS011;58635;51.198;6.010;2023-02-22T02:06:33;66.43;;;23.52;;
70975;SDS011;58635;51.198;6.010;2023-02-22T02:09:18;43.60;;;22.02;;
70975;SDS011;58635;51.198;6.010;2023-02-22T02:11:48;71.65;;;23.27;;
70975;SDS011;58635;51.198;6.010;2023-02-22T02:14:14;42.78;;;22.30;;
70975;SDS011;58635;51.198;6.010;2023-02-22T02:16:41;156.25;;;41.45;;
70975;SDS011;58635;51.198;6.010;2023-02-22T02:19:14;133.80;;;43.70;;
70975;SDS011;58635;51.198;6.010;2023-02-22T02:21:58;103.38;;;41.25;;
70975;SDS011;58635;51.198;6.010;2023-02-22T02:35:13;53.88;;;25.48;;
70975;SDS011;58635;51.198;6.010;2023-02-22T02:40:21;46.08;;;24.45;;
70975;SDS011;58635;51.198;6.010;2023-02-22T02:46:00;49.58;;;24.88;;
70975;SDS011;58635;51.198;6.010;2023-02-22T02:48:32;54.55;;;25.40;;
70975;SDS011;58635;51.198;6.010;2023-02-22T02:50:59;47.60;;;23.48;;
70975;SDS011;58635;51.198;6.010;2023-02-22T02:53:34;57.72;;;26.35;;
70975;SDS011;58635;51.198;6.010;2023-02-22T02:56:03;56.33;;;26.88;;
70975;SDS011;58635;51.198;6.010;2023-02-22T02:58:29;58.42;;;27.45;;
70975;SDS011;58635;51.198;6.010;2023-02-22T03:00:56;54.10;;;27.80;;
70975;SDS011;58635;51.198;6.010;2023-02-22T03:06:32;61.90;;;28.63;;
70975;SDS011;58635;51.198;6.010;2023-02-22T03:09:19;68.35;;;23.30;;
70975;SDS011;58635;51.198;6.010;2023-02-22T03:15:11;36.13;;;19.52;;
70975;SDS011;58635;51.198;6.010;2023-02-22T03:23:02;36.60;;;19.50;;
70975;SDS011;58635;51.198;6.010;2023-02-22T03:25:36;30.35;;;18.20;;
70975;SDS011;58635;51.198;6.010;2023-02-22T03:28:08;65.30;;;18.80;;
70975;SDS011;58635;51.198;6.010;2023-02-22T03:30:50;33.15;;;18.08;;
70975;SDS011;58635;51.198;6.010;2023-02-22T03:33:24;33.80;;;17.23;;
70975;SDS011;58635;51.198;6.010;2023-02-22T03:35:59;29.80;;;17.55;;
70975;SDS011;58635;51.198;6.010;2023-02-22T03:38:27;30.33;;;17.48;;
70975;SDS011;58635;51.198;6.010;2023-02-22T03:40:58;31.75;;;18.40;;
70975;SDS011;58635;51.198;6.010;2023-02-22T03:43:40;28.83;;;17.48;;
70975;SDS011;58635;51.198;6.010;2023-02-22T03:46:10;32.38;;;17.08;;
70975;SDS011;58635;51.198;6.010;2023-02-22T03:48:41;29.48;;;16.77;;
70975;SDS011;58635;51.198;6.010;2023-02-22T03:51:29;29.15;;;16.52;;
70975;SDS011;58635;51.198;6.010;2023-02-22T03:53:54;32.15;;;17.40;;
70975;SDS011;58635;51.198;6.010;2023-02-22T03:56:22;30.52;;;17.75;;
70975;SDS011;58635;51.198;6.010;2023-02-22T03:58:52;29.63;;;17.67;;
70975;SDS011;58635;51.198;6.010;2023-02-22T04:01:18;29.50;;;17.60;;
70975;SDS011;58635;51.198;6.010;2023-02-22T04:03:44;28.10;;;17.58;;
70975;SDS011;58635;51.198;6.010;2023-02-22T04:06:09;30.35;;;16.33;;
70975;SDS011;58635;51.198;6.010;2023-02-22T04:08:35;26.67;;;15.52;;
70975;SDS011;58635;51.198;6.010;2023-02-22T04:11:00;28.50;;;15.77;;
70975;SDS011;58635;51.198;6.010;2023-02-22T04:13:27;28.65;;;15.50;;
70975;SDS011;58635;51.198;6.010;2023-02-22T04:15:53;26.95;;;14.93;;
70975;SDS011;58635;51.198;6.010;2023-02-22T04:18:18;33.33;;;15.20;;
70975;SDS011;58635;51.198;6.010;2023-02-22T04:20:44;25.90;;;15.02;;
70975;SDS011;58635;51.198;6.010;2023-02-22T04:23:09;27.33;;;15.43;;
70975;SDS011;58635;51.198;6.010;2023-02-22T04:25:35;31.33;;;16.05;;
70975;SDS011;58635;51.198;6.010;2023-02-22T04:28:01;32.65;;;16.83;;
70975;SDS011;58635;51.198;6.010;2023-02-22T04:30:27;31.25;;;16.55;;
70975;SDS011;58635;51.198;6.010;2023-02-22T04:32:54;26.92;;;16.00;;
70975;SDS011;58635;51.198;6.010;2023-02-22T04:35:20;39.15;;;18.65;;
70975;SDS011;58635;51.198;6.010;2023-02-22T04:37:46;30.48;;;18.45;;
70975;SDS011;58635;51.198;6.010;2023-02-22T04:40:11;32.42;;;19.55;;
70975;SDS011;58635;51.198;6.010;2023-02-22T04:42:37;44.53;;;24.17;;
70975;SDS011;58635;51.198;6.010;2023-02-22T04:45:04;34.42;;;20.50;;
70975;SDS011;58635;51.198;6.010;2023-02-22T04:47:32;32.83;;;20.05;;
70975;SDS011;58635;51.198;6.010;2023-02-22T04:49:57;28.98;;;17.30;;
70975;SDS011;58635;51.198;6.010;2023-02-22T04:52:24;24.83;;;15.88;;
70975;SDS011;58635;51.198;6.010;2023-02-22T04:54:50;27.88;;;16.30;;
70975;SDS011;58635;51.198;6.010;2023-02-22T04:57:16;27.55;;;17.15;;
70975;SDS011;58635;51.198;6.010;2023-02-22T04:59:41;34.38;;;16.40;;
70975;SDS011;58635;51.198;6.010;2023-02-22T05:02:06;26.40;;;16.02;;
70975;SDS011;58635;51.198;6.010;2023-02-22T05:04:32;60.08;;;19.95;;
70975;SDS011;58635;51.198;6.010;2023-02-22T05:06:57;31.88;;;19.77;;
70975;SDS011;58635;51.198;6.010;2023-02-22T05:09:23;36.40;;;21.63;;
70975;SDS011;58635;51.198;6.010;2023-02-22T05:11:48;53.35;;;27.55;;
70975;SDS011;58635;51.198;6.010;2023-02-22T05:14:14;59.20;;;25.65;;
70975;SDS011;58635;51.198;6.010;2023-02-22T05:16:39;39.72;;;23.20;;
70975;SDS011;58635;51.198;6.010;2023-02-22T05:19:04;44.80;;;21.65;;
70975;SDS011;58635;51.198;6.010;2023-02-22T05:21:30;37.25;;;21.58;;
70975;SDS011;58635;51.198;6.010;2023-02-22T05:23:55;38.67;;;21.58;;
70975;SDS011;58635;51.198;6.010;2023-02-22T05:26:21;39.53;;;22.52;;
70975;SDS011;58635;51.198;6.010;2023-02-22T05:28:47;43.40;;;23.45;;
70975;SDS011;58635;51.198;6.010;2023-02-22T05:31:12;46.88;;;24.60;;
70975;SDS011;58635;51.198;6.010;2023-02-22T05:33:38;65.15;;;26.05;;
70975;SDS011;58635;51.198;6.010;2023-02-22T05:36:04;72.43;;;29.67;;
70975;SDS011;58635;51.198;6.010;2023-02-22T05:38:31;84.20;;;29.60;;
70975;SDS011;58635;51.198;6.010;2023-02-22T05:40:57;70.45;;;29.30;;
70975;SDS011;58635;51.198;6.010;2023-02-22T05:43:22;58.35;;;25.35;;
70975;SDS011;58635;51.198;6.010;2023-02-22T05:45:48;60.95;;;24.38;;
70975;SDS011;58635;51.198;6.010;2023-02-22T05:48:13;56.83;;;24.30;;
70975;SDS011;58635;51.198;6.010;2023-02-22T05:50:39;55.38;;;24.83;;
70975;SDS011;58635;51.198;6.010;2023-02-22T05:53:04;61.38;;;25.60;;
70975;SDS011;58635;51.198;6.010;2023-02-22T05:55:30;51.97;;;24.17;;
70975;SDS011;58635;51.198;6.010;2023-02-22T05:57:55;56.42;;;26.20;;
70975;SDS011;58635;51.198;6.010;2023-02-22T06:00:25;63.67;;;29.25;;
70975;SDS011;58635;51.198;6.010;2023-02-22T06:03:03;103.88;;;46.30;;
70975;SDS011;58635;51.198;6.010;2023-02-22T06:05:30;153.23;;;51.05;;
70975;SDS011;58635;51.198;6.010;2023-02-22T06:07:56;87.38;;;30.65;;
70975;SDS011;58635;51.198;6.010;2023-02-22T06:10:26;71.72;;;29.33;;
70975;SDS011;58635;51.198;6.010;2023-02-22T06:12:52;64.47;;;27.77;;
70975;SDS011;58635;51.198;6.010;2023-02-22T06:15:19;72.93;;;29.60;;
70975;SDS011;58635;51.198;6.010;2023-02-22T06:17:46;56.90;;;22.40;;
70975;SDS011;58635;51.198;6.010;2023-02-22T06:20:12;41.60;;;22.25;;
70975;SDS011;58635;51.198;6.010;2023-02-22T06:22:40;45.92;;;19.75;;
70975;SDS011;58635;51.198;6.010;2023-02-22T06:25:06;44.15;;;16.90;;
70975;SDS011;58635;51.198;6.010;2023-02-22T06:27:33;23.85;;;15.27;;
70975;SDS011;58635;51.198;6.010;2023-02-22T06:29:59;25.75;;;14.82;;
70975;SDS011;58635;51.198;6.010;2023-02-22T06:32:25;23.80;;;14.40;;
70975;SDS011;58635;51.198;6.010;2023-02-22T06:34:50;25.27;;;15.80;;
70975;SDS011;58635;51.198;6.010;2023-02-22T06:37:16;22.77;;;14.05;;
70975;SDS011;58635;51.198;6.010;2023-02-22T06:39:41;22.50;;;13.95;;
70975;SDS011;58635;51.198;6.010;2023-02-22T06:42:07;21.25;;;14.15;;
70975;SDS011;58635;51.198;6.010;2023-02-22T06:44:32;22.08;;;14.60;;
70975;SDS011;58635;51.198;6.010;2023-02-22T06:46:58;23.90;;;15.90;;
70975;SDS011;58635;51.198;6.010;2023-02-22T06:49:23;22.33;;;13.73;;
70975;SDS011;58635;51.198;6.010;2023-02-22T06:51:51;22.70;;;13.60;;
70975;SDS011;58635;51.198;6.010;2023-02-22T06:54:17;22.00;;;13.35;;
70975;SDS011;58635;51.198;6.010;2023-02-22T06:56:43;22.25;;;13.68;;
70975;SDS011;58635;51.198;6.010;2023-02-22T06:59:08;22.00;;;13.82;;
70975;SDS011;58635;51.198;6.010;2023-02-22T07:01:34;20.98;;;13.68;;
70975;SDS011;58635;51.198;6.010;2023-02-22T07:03:59;19.52;;;12.60;;
70975;SDS011;58635;51.198;6.010;2023-02-22T07:06:25;18.98;;;13.18;;
70975;SDS011;58635;51.198;6.010;2023-02-22T07:08:50;18.55;;;12.82;;
70975;SDS011;58635;51.198;6.010;2023-02-22T07:11:15;19.40;;;12.45;;
70975;SDS011;58635;51.198;6.010;2023-02-22T07:13:41;17.38;;;11.80;;
70975;SDS011;58635;51.198;6.010;2023-02-22T07:16:07;17.45;;;12.40;;
70975;SDS011;58635;51.198;6.010;2023-02-22T07:18:32;19.15;;;12.27;;
70975;SDS011;58635;51.198;6.010;2023-02-22T07:20:58;18.90;;;12.35;;
70975;SDS011;58635;51.198;6.010;2023-02-22T07:23:23;18.50;;;12.13;;
70975;SDS011;58635;51.198;6.010;2023-02-22T07:25:49;19.58;;;12.82;;
70975;SDS011;58635;51.198;6.010;2023-02-22T07:28:14;19.02;;;12.68;;
70975;SDS011;58635;51.198;6.010;2023-02-22T07:30:41;18.80;;;12.02;;
70975;SDS011;58635;51.198;6.010;2023-02-22T07:33:08;17.90;;;12.55;;
70975;SDS011;58635;51.198;6.010;2023-02-22T07:35:36;16.20;;;11.25;;
70975;SDS011;58635;51.198;6.010;2023-02-22T07:38:04;16.27;;;10.93;;
70975;SDS011;58635;51.198;6.010;2023-02-22T07:40:32;15.75;;;11.20;;
70975;SDS011;58635;51.198;6.010;2023-02-22T07:42:59;18.65;;;11.68;;
70975;SDS011;58635;51.198;6.010;2023-02-22T07:45:30;17.10;;;11.43;;
70975;SDS011;58635;51.198;6.010;2023-02-22T07:47:57;15.80;;;10.68;;
70975;SDS011;58635;51.198;6.010;2023-02-22T07:50:23;18.67;;;12.05;;
70975;SDS011;58635;51.198;6.010;2023-02-22T07:52:53;18.70;;;11.82;;
70975;SDS011;58635;51.198;6.010;2023-02-22T07:55:26;15.75;;;10.80;;
70975;SDS011;58635;51.198;6.010;2023-02-22T07:57:55;16.42;;;11.02;;
70975;SDS011;58635;51.198;6.010;2023-02-22T08:00:23;13.43;;;10.25;;
70975;SDS011;58635;51.198;6.010;2023-02-22T08:02:48;15.57;;;10.93;;
70975;SDS011;58635;51.198;6.010;2023-02-22T08:05:14;14.43;;;10.70;;
70975;SDS011;58635;51.198;6.010;2023-02-22T08:07:40;16.42;;;10.75;;
70975;SDS011;58635;51.198;6.010;2023-02-22T08:10:08;18.02;;;11.60;;
70975;SDS011;58635;51.198;6.010;2023-02-22T08:12:34;14.82;;;10.45;;
70975;SDS011;58635;51.198;6.010;2023-02-22T08:15:00;15.38;;;10.50;;
70975;SDS011;58635;51.198;6.010;2023-02-22T08:17:27;18.02;;;10.85;;
70975;SDS011;58635;51.198;6.010;2023-02-22T08:19:52;15.60;;;10.00;;
70975;SDS011;58635;51.198;6.010;2023-02-22T08:22:18;16.13;;;10.98;;
70975;SDS011;58635;51.198;6.010;2023-02-22T08:24:43;17.95;;;11.40;;
70975;SDS011;58635;51.198;6.010;2023-02-22T08:27:09;17.05;;;10.50;;
70975;SDS011;58635;51.198;6.010;2023-02-22T08:29:34;16.88;;;10.90;;
70975;SDS011;58635;51.198;6.010;2023-02-22T08:32:00;16.25;;;10.60;;
70975;SDS011;58635;51.198;6.010;2023-02-22T08:34:25;15.82;;;10.15;;
70975;SDS011;58635;51.198;6.010;2023-02-22T08:36:51;15.85;;;11.05;;
70975;SDS011;58635;51.198;6.010;2023-02-22T08:39:17;18.17;;;12.20;;
70975;SDS011;58635;51.198;6.010;2023-02-22T08:41:42;14.55;;;10.13;;
70975;SDS011;58635;51.198;6.010;2023-02-22T08:44:08;16.95;;;10.55;;
70975;SDS011;58635;51.198;6.010;2023-02-22T08:46:33;14.18;;;10.25;;
70975;SDS011;58635;51.198;6.010;2023-02-22T08:48:59;15.60;;;10.40;;
70975;SDS011;58635;51.198;6.010;2023-02-22T08:51:25;15.05;;;9.95;;
70975;SDS011;58635;51.198;6.010;2023-02-22T08:53:51;14.05;;;10.20;;
70975;SDS011;58635;51.198;6.010;2023-02-22T08:56:17;15.75;;;9.98;;
70975;SDS011;58635;51.198;6.010;2023-02-22T08:58:43;12.93;;;9.35;;
70975;SDS011;58635;51.198;6.010;2023-02-22T09:01:08;13.27;;;9.20;;
70975;SDS011;58635;51.198;6.010;2023-02-22T09:03:34;14.88;;;9.23;;
70975;SDS011;58635;51.198;6.010;2023-02-22T09:05:59;13.43;;;9.02;;
70975;SDS011;58635;51.198;6.010;2023-02-22T09:08:25;14.60;;;9.88;;
70975;SDS011;58635;51.198;6.010;2023-02-22T09:10:50;14.95;;;9.93;;
70975;SDS011;58635;51.198;6.010;2023-02-22T09:13:16;13.50;;;9.68;;
70975;SDS011;58635;51.198;6.010;2023-02-22T09:15:41;14.18;;;9.40;;
70975;SDS011;58635;51.198;6.010;2023-02-22T09:18:08;14.45;;;10.45;;
70975;SDS011;58635;51.198;6.010;2023-02-22T09:20:35;15.38;;;10.40;;
70975;SDS011;58635;51.198;6.010;2023-02-22T09:23:04;14.40;;;10.15;;
70975;SDS011;58635;51.198;6.010;2023-02-22T09:25:30;13.80;;;9.90;;
70975;SDS011;58635;51.198;6.010;2023-02-22T09:27:58;15.45;;;10.60;;
70975;SDS011;58635;51.198;6.010;2023-02-22T09:30:33;16.98;;;10.90;;
70975;SDS011;58635;51.198;6.010;2023-02-22T09:33:03;23.15;;;15.18;;
70975;SDS011;58635;51.198;6.010;2023-02-22T09:35:33;18.60;;;12.25;;
70975;SDS011;58635;51.198;6.010;2023-02-22T09:38:00;16.33;;;12.65;;
70975;SDS011;58635;51.198;6.010;2023-02-22T09:40:28;18.83;;;12.82;;
70975;SDS011;58635;51.198;6.010;2023-02-22T09:45:33;22.45;;;15.95;;
70975;SDS011;58635;51.198;6.010;2023-02-22T09:48:12;16.75;;;11.48;;
70975;SDS011;58635;51.198;6.010;2023-02-22T09:50:41;23.67;;;14.65;;
70975;SDS011;58635;51.198;6.010;2023-02-22T09:55:57;22.98;;;15.60;;
70975;SDS011;58635;51.198;6.010;2023-02-22T09:58:33;22.77;;;14.90;;
70975;SDS011;58635;51.198;6.010;2023-02-22T10:01:25;22.98;;;15.45;;
70975;SDS011;58635;51.198;6.010;2023-02-22T10:06:43;25.90;;;15.30;;
70975;SDS011;58635;51.198;6.010;2023-02-22T10:09:21;21.60;;;13.82;;
70975;SDS011;58635;51.198;6.010;2023-02-22T10:11:59;19.38;;;12.80;;
70975;SDS011;58635;51.198;6.010;2023-02-22T10:25:17;18.10;;;11.88;;
70975;SDS011;58635;51.198;6.010;2023-02-22T10:28:02;15.32;;;10.75;;
70975;SDS011;58635;51.198;6.010;2023-02-22T10:30:40;15.82;;;10.55;;
70975;SDS011;58635;51.198;6.010;2023-02-22T10:33:23;15.57;;;10.30;;
70975;SDS011;58635;51.198;6.010;2023-02-22T10:35:53;15.43;;;10.05;;
70975;SDS011;58635;51.198;6.010;2023-02-22T10:43:19;14.18;;;9.45;;
70975;SDS011;58635;51.198;6.010;2023-02-22T10:45:45;15.27;;;9.93;;
70975;SDS011;58635;51.198;6.010;2023-02-22T10:48:13;14.52;;;9.43;;
70975;SDS011;58635;51.198;6.010;2023-02-22T10:50:42;17.40;;;9.95;;
70975;SDS011;58635;51.198;6.010;2023-02-22T10:53:10;14.52;;;8.73;;
70975;SDS011;58635;51.198;6.010;2023-02-22T10:58:40;15.45;;;10.10;;
70975;SDS011;58635;51.198;6.010;2023-02-22T11:01:24;15.23;;;9.30;;
70975;SDS011;58635;51.198;6.010;2023-02-22T11:06:26;14.40;;;8.07;;
70975;SDS011;58635;51.198;6.010;2023-02-22T11:09:02;13.10;;;8.50;;
70975;SDS011;58635;51.198;6.010;2023-02-22T11:11:30;12.65;;;7.72;;
70975;SDS011;58635;51.198;6.010;2023-02-22T11:13:56;10.73;;;7.72;;
70975;SDS011;58635;51.198;6.010;2023-02-22T11:18:58;13.07;;;7.55;;
70975;SDS011;58635;51.198;6.010;2023-02-22T11:21:26;12.70;;;7.82;;
70975;SDS011;58635;51.198;6.010;2023-02-22T11:24:02;10.82;;;7.47;;
70975;SDS011;58635;51.198;6.010;2023-02-22T11:26:36;10.20;;;7.63;;
70975;SDS011;58635;51.198;6.010;2023-02-22T11:29:11;12.60;;;7.60;;
70975;SDS011;58635;51.198;6.010;2023-02-22T11:31:43;10.82;;;7.50;;
70975;SDS011;58635;51.198;6.010;2023-02-22T11:34:23;12.45;;;7.55;;
70975;SDS011;58635;51.198;6.010;2023-02-22T11:36:52;10.65;;;7.40;;
70975;SDS011;58635;51.198;6.010;2023-02-22T11:41:48;15.18;;;8.43;;
70975;SDS011;58635;51.198;6.010;2023-02-22T11:46:52;15.43;;;8.75;;
70975;SDS011;58635;51.198;6.010;2023-02-22T11:49:20;13.52;;;8.68;;
70975;SDS011;58635;51.198;6.010;2023-02-22T11:57:38;13.20;;;8.32;;
70975;SDS011;58635;51.198;6.010;2023-02-22T12:00:13;13.43;;;7.93;;
70975;SDS011;58635;51.198;6.010;2023-02-22T12:05:33;14.55;;;8.65;;
70975;SDS011;58635;51.198;6.010;2023-02-22T12:16:27;13.63;;;7.93;;
70975;SDS011;58635;51.198;6.010;2023-02-22T12:19:20;13.80;;;8.82;;
70975;SDS011;58635;51.198;6.010;2023-02-22T12:21:52;14.20;;;9.02;;
70975;SDS011;58635;51.198;6.010;2023-02-22T12:24:25;13.73;;;8.55;;
70975;SDS011;58635;51.198;6.010;2023-02-22T12:29:59;14.98;;;8.85;;
70975;SDS011;58635;51.198;6.010;2023-02-22T12:32:37;13.90;;;8.95;;
70975;SDS011;58635;51.198;6.010;2023-02-22T12:35:22;12.70;;;9.15;;
70975;SDS011;58635;51.198;6.010;2023-02-22T12:37:58;13.23;;;9.80;;
70975;SDS011;58635;51.198;6.010;2023-02-22T12:46:15;14.82;;;9.60;;
70975;SDS011;58635;51.198;6.010;2023-02-22T12:51:32;13.98;;;9.90;;
70975;SDS011;58635;51.198;6.010;2023-02-22T12:54:03;12.93;;;9.38;;
70975;SDS011;58635;51.198;6.010;2023-02-22T12:56:34;14.68;;;9.95;;
70975;SDS011;58635;51.198;6.010;2023-02-22T13:01:37;12.05;;;10.10;;
70975;SDS011;58635;51.198;6.010;2023-02-22T13:04:09;15.60;;;9.90;;
70975;SDS011;58635;51.198;6.010;2023-02-22T13:18:44;13.95;;;10.48;;
70975;SDS011;58635;51.198;6.010;2023-02-22T13:24:35;14.60;;;10.20;;
70975;SDS011;58635;51.198;6.010;2023-02-22T13:27:15;16.98;;;11.48;;
70975;SDS011;58635;51.198;6.010;2023-02-22T13:29:49;14.05;;;10.23;;
70975;SDS011;58635;51.198;6.010;2023-02-22T13:43:41;14.18;;;10.50;;
70975;SDS011;58635;51.198;6.010;2023-02-22T13:46:28;16.20;;;10.68;;
70975;SDS011;58635;51.198;6.010;2023-02-22T13:49:17;14.10;;;10.05;;
70975;SDS011;58635;51.198;6.010;2023-02-22T13:51:55;16.30;;;11.35;;
70975;SDS011;58635;51.198;6.010;2023-02-22T13:54:33;16.50;;;11.50;;
70975;SDS011;58635;51.198;6.010;2023-02-22T13:57:17;14.43;;;10.82;;
70975;SDS011;58635;51.198;6.010;2023-02-22T13:59:47;16.70;;;11.48;;
70975;SDS011;58635;51.198;6.010;2023-02-22T14:08:04;14.23;;;10.35;;
70975;SDS011;58635;51.198;6.010;2023-02-22T14:10:34;15.27;;;10.88;;
70975;SDS011;58635;51.198;6.010;2023-02-22T14:13:05;14.70;;;11.18;;
70975;SDS011;58635;51.198;6.010;2023-02-22T14:15:31;14.82;;;11.38;;
70975;SDS011;58635;51.198;6.010;2023-02-22T14:20:31;14.88;;;10.82;;
70975;SDS011;58635;51.198;6.010;2023-02-22T14:25:47;15.35;;;11.68;;
70975;SDS011;58635;51.198;6.010;2023-02-22T14:31:04;16.27;;;12.05;;
70975;SDS011;58635;51.198;6.010;2023-02-22T14:39:09;16.13;;;12.60;;
70975;SDS011;58635;51.198;6.010;2023-02-22T14:41:47;16.38;;;11.43;;
70975;SDS011;58635;51.198;6.010;2023-02-22T14:44:26;15.75;;;11.68;;
70975;SDS011;58635;51.198;6.010;2023-02-22T14:46:57;16.50;;;11.95;;
70975;SDS011;58635;51.198;6.010;2023-02-22T14:49:29;18.02;;;12.40;;
70975;SDS011;58635;51.198;6.010;2023-02-22T14:52:10;17.75;;;13.25;;
70975;SDS011;58635;51.198;6.010;2023-02-22T14:57:53;18.80;;;13.50;;
70975;SDS011;58635;51.198;6.010;2023-02-22T15:00:40;17.27;;;13.52;;
70975;SDS011;58635;51.198;6.010;2023-02-22T15:03:10;18.27;;;12.80;;
70975;SDS011;58635;51.198;6.010;2023-02-22T15:05:43;17.58;;;13.40;;
70975;SDS011;58635;51.198;6.010;2023-02-22T15:08:09;18.40;;;13.25;;
70975;SDS011;58635;51.198;6.010;2023-02-22T15:10:38;16.70;;;13.45;;
70975;SDS011;58635;51.198;6.010;2023-02-22T15:13:19;18.02;;;13.90;;
70975;SDS011;58635;51.198;6.010;2023-02-22T15:15:54;17.00;;;13.27;;
70975;SDS011;58635;51.198;6.010;2023-02-22T15:21:09;18.88;;;13.45;;
70975;SDS011;58635;51.198;6.010;2023-02-22T15:26:21;17.05;;;13.13;;
70975;SDS011;58635;51.198;6.010;2023-02-22T15:28:47;17.42;;;13.48;;
70975;SDS011;58635;51.198;6.010;2023-02-22T15:31:23;17.90;;;13.70;;
70975;SDS011;58635;51.198;6.010;2023-02-22T15:34:00;17.80;;;13.35;;
70975;SDS011;58635;51.198;6.010;2023-02-22T15:36:39;17.92;;;14.30;;
70975;SDS011;58635;51.198;6.010;2023-02-22T15:39:19;19.73;;;14.93;;
70975;SDS011;58635;51.198;6.010;2023-02-22T15:44:41;19.38;;;13.95;;
70975;SDS011;58635;51.198;6.010;2023-02-22T15:47:25;18.50;;;14.23;;
70975;SDS011;58635;51.198;6.010;2023-02-22T15:52:48;21.27;;;14.70;;
70975;SDS011;58635;51.198;6.010;2023-02-22T15:55:24;20.10;;;14.55;;
70975;SDS011;58635;51.198;6.010;2023-02-22T15:57:52;18.35;;;13.63;;
70975;SDS011;58635;51.198;6.010;2023-02-22T16:00:20;20.63;;;13.98;;
70975;SDS011;58635;51.198;6.010;2023-02-22T16:03:00;18.15;;;14.05;;
70975;SDS011;58635;51.198;6.010;2023-02-22T16:05:33;20.52;;;14.27;;
70975;SDS011;58635;51.198;6.010;2023-02-22T16:08:02;17.48;;;13.65;;
70975;SDS011;58635;51.198;6.010;2023-02-22T16:10:39;16.13;;;12.65;;
70975;SDS011;58635;51.198;6.010;2023-02-22T16:13:19;17.92;;;13.55;;
70975;SDS011;58635;51.198;6.010;2023-02-22T16:15:55;16.75;;;13.63;;
70975;SDS011;58635;51.198;6.010;2023-02-22T16:18:29;19.48;;;13.20;;
70975;SDS011;58635;51.198;6.010;2023-02-22T16:21:03;19.52;;;13.77;;
70975;SDS011;58635;51.198;6.010;2023-02-22T16:23:42;18.55;;;13.70;;
70975;SDS011;58635;51.198;6.010;2023-02-22T16:28:52;18.42;;;13.82;;
70975;SDS011;58635;51.198;6.010;2023-02-22T16:31:23;16.63;;;13.15;;
70975;SDS011;58635;51.198;6.010;2023-02-22T16:33:51;15.93;;;12.10;;
70975;SDS011;58635;51.198;6.010;2023-02-22T16:36:18;16.73;;;12.85;;
70975;SDS011;58635;51.198;6.010;2023-02-22T16:38:45;17.38;;;12.85;;
70975;SDS011;58635;51.198;6.010;2023-02-22T16:41:13;17.50;;;13.48;;
70975;SDS011;58635;51.198;6.010;2023-02-22T16:43:47;18.48;;;13.77;;
70975;SDS011;58635;51.198;6.010;2023-02-22T16:46:15;18.27;;;13.27;;
70975;SDS011;58635;51.198;6.010;2023-02-22T16:48:42;19.20;;;14.02;;
70975;SDS011;58635;51.198;6.010;2023-02-22T16:53:44;17.95;;;13.50;;
70975;SDS011;58635;51.198;6.010;2023-02-22T16:56:13;19.98;;;13.25;;
70975;SDS011;58635;51.198;6.010;2023-02-22T16:58:40;18.77;;;13.20;;
70975;SDS011;58635;51.198;6.010;2023-02-22T17:01:06;19.02;;;13.85;;
70975;SDS011;58635;51.198;6.010;2023-02-22T17:03:32;18.77;;;15.07;;
70975;SDS011;58635;51.198;6.010;2023-02-22T17:05:57;19.50;;;14.82;;
70975;SDS011;58635;51.198;6.010;2023-02-22T17:08:23;20.02;;;13.77;;
70975;SDS011;58635;51.198;6.010;2023-02-22T17:10:49;19.98;;;14.95;;
70975;SDS011;58635;51.198;6.010;2023-02-22T17:13:21;17.88;;;14.00;;
70975;SDS011;58635;51.198;6.010;2023-02-22T17:15:49;19.00;;;14.27;;
70975;SDS011;58635;51.198;6.010;2023-02-22T17:18:21;20.65;;;14.63;;
70975;SDS011;58635;51.198;6.010;2023-02-22T17:20:49;19.70;;;15.57;;
70975;SDS011;58635;51.198;6.010;2023-02-22T17:23:15;19.50;;;14.38;;